createdAt,value
2022-08-28T00:00:29.468Z,99756.47
2022-08-28T00:02:57.454Z,99751.47
2022-08-28T00:05:27.901Z,99752.47
2022-08-28T00:07:54.979Z,99745.78
2022-08-28T00:10:24.110Z,99745.06
2022-08-28T00:12:53.572Z,99737.88
2022-08-28T00:15:24.493Z,99744.91
2022-08-28T00:17:51.285Z,99739.78
2022-08-28T00:20:19.980Z,99734.66
2022-08-28T00:22:47.622Z,99735.56
2022-08-28T00:25:16.497Z,99730.31
2022-08-28T00:27:52.590Z,99736.44
2022-08-28T00:30:25.134Z,99733.59
2022-08-28T00:32:54.563Z,99731.09
2022-08-28T00:35:23.753Z,99725.91
2022-08-28T00:37:51.916Z,99720.53
2022-08-28T00:40:28.642Z,99734.44
2022-08-28T00:43:04.436Z,99717.84
2022-08-28T00:45:35.978Z,99722.28
2022-08-28T00:48:04.339Z,99720.53
2022-08-28T00:50:52.645Z,99722.28
2022-08-28T00:53:20.541Z,99726.75
2022-08-28T00:55:50.410Z,99718.91
2022-08-28T00:58:18.108Z,99724.91
2022-08-28T01:00:44.907Z,99711.72
2022-08-28T01:03:11.768Z,99715.16
2022-08-28T01:05:40.282Z,99718.56
2022-08-28T01:08:07.144Z,99712.25
2022-08-28T01:10:34.956Z,99709.44
2022-08-28T01:13:02.968Z,99706.03
2022-08-28T01:15:35.489Z,99701.56
2022-08-28T01:18:08.627Z,99713.16
2022-08-28T01:20:38.426Z,99704.47
2022-08-28T01:23:22.457Z,99711.19
2022-08-28T01:25:49.419Z,99707.06
2022-08-28T01:28:16.765Z,99697.22
2022-08-28T01:30:46.411Z,99694.59
2022-08-28T01:33:14.858Z,99694.59
2022-08-28T01:35:45.516Z,99689.25
2022-08-28T01:38:12.577Z,99691.06
2022-08-28T01:40:47.181Z,99691.06
2022-08-28T01:43:21.137Z,99689.25
2022-08-28T01:45:54.269Z,99696.09
2022-08-28T01:48:23.653Z,99686.38
2022-08-28T01:50:50.864Z,99683.81
2022-08-28T01:53:20.077Z,99678.28
2022-08-28T01:55:53.507Z,99674.56
2022-08-28T01:58:21.692Z,99674.56
2022-08-28T02:00:48.681Z,99677.91
2022-08-28T02:03:16.256Z,99677.91
2022-08-28T02:05:43.712Z,99671.72
2022-08-28T02:08:10.778Z,99683.97
2022-08-28T02:10:39.679Z,99692.66
2022-08-28T02:13:07.692Z,99676.91
2022-08-28T02:15:36.146Z,99687.38
2022-08-28T02:18:04.130Z,99679.53
2022-08-28T02:20:31.197Z,99678.69
2022-08-28T02:22:58.774Z,99685.81
2022-08-28T02:25:27.215Z,99677.13
2022-08-28T02:27:54.668Z,99667.50
2022-08-28T02:30:21.626Z,99672.00
2022-08-28T02:32:48.409Z,99677.28
2022-08-28T02:35:17.262Z,99677.13
2022-08-28T02:37:46.001Z,99673.56
2022-08-28T02:40:17.252Z,99672.72
2022-08-28T02:42:44.407Z,99670.16
2022-08-28T02:45:13.835Z,99673.41
2022-08-28T02:47:43.723Z,99669.88
2022-08-28T02:50:13.455Z,99666.22
2022-08-28T02:52:41.400Z,99674.84
2022-08-28T02:55:09.848Z,99669.44
2022-08-28T02:57:37.701Z,99664.03
2022-08-28T03:00:06.855Z,99669.13
2022-08-28T03:02:34.202Z,99674.28
2022-08-28T03:05:01.078Z,99673.00
2022-08-28T03:07:29.391Z,99667.59
2022-08-28T03:09:56.543Z,99666.50
2022-08-28T03:12:26.495Z,99669.84
2022-08-28T03:14:53.823Z,99660.97
2022-08-28T03:17:22.122Z,99659.91
2022-08-28T03:19:50.264Z,99666.88
2022-08-28T03:22:38.487Z,99668.59
2022-08-28T03:25:06.914Z,99663.31
2022-08-28T03:27:34.171Z,99665.97
2022-08-28T03:30:02.838Z,99665.81
2022-08-28T03:32:31.773Z,99655.09
2022-08-28T03:34:58.614Z,99661.16
2022-08-28T03:37:25.759Z,99660.22
2022-08-28T03:39:53.468Z,99652.25
2022-08-28T03:42:20.359Z,99665.28
2022-08-28T03:44:49.096Z,99656.34
2022-08-28T03:47:16.765Z,99658.06
2022-08-28T03:49:45.407Z,99659.63
2022-08-28T03:52:12.719Z,99654.34
2022-08-28T03:54:39.556Z,99653.41
2022-08-28T03:57:07.608Z,99650.69
2022-08-28T03:59:35.621Z,99650.59
2022-08-28T04:02:02.577Z,99650.59
2022-08-28T04:04:29.419Z,99648.75
2022-08-28T04:06:56.193Z,99654.13
2022-08-28T04:09:23.064Z,99655.88
2022-08-28T04:11:49.860Z,99659.47
2022-08-28T04:14:16.683Z,99654.13
2022-08-28T04:16:43.781Z,99667.38
2022-08-28T04:19:10.695Z,99648.91
2022-08-28T04:21:37.549Z,99651.56
2022-08-28T04:24:09.021Z,99650.59
2022-08-28T04:26:36.861Z,99638.19
2022-08-28T04:29:04.973Z,99650.31
2022-08-28T04:31:32.966Z,99648.28
2022-08-28T04:34:02.076Z,99656.97
2022-08-28T04:36:29.407Z,99653.41
2022-08-28T04:38:57.802Z,99662.97
2022-08-28T04:41:24.571Z,99653.25
2022-08-28T04:43:52.839Z,99656.81
2022-08-28T04:46:20.570Z,99654.97
2022-08-28T04:48:47.397Z,99645.09
2022-08-28T04:51:17.913Z,99642.34
2022-08-28T04:53:44.739Z,99650.38
2022-08-28T04:56:14.062Z,99650.38
2022-08-28T04:58:43.046Z,99640.75
2022-08-28T05:01:13.799Z,99648.44
2022-08-28T05:03:41.034Z,99641.28
2022-08-28T05:06:09.520Z,99639.34
2022-08-28T05:08:36.617Z,99642.84
2022-08-28T05:11:22.074Z,99640.28
2022-08-28T05:14:04.506Z,99641.44
2022-08-28T05:16:32.502Z,99634.16
2022-08-28T05:19:01.336Z,99633.72
2022-08-28T05:21:28.451Z,99631.16
2022-08-28T05:23:57.633Z,99633.81
2022-08-28T05:26:26.833Z,99628.38
2022-08-28T05:28:56.737Z,99625.53
2022-08-28T05:31:25.133Z,99616.53
2022-08-28T05:33:53.814Z,99616.47
2022-08-28T05:36:23.302Z,99610.00
2022-08-28T05:38:56.679Z,99608.97
2022-08-28T05:41:27.559Z,99612.44
2022-08-28T05:43:54.362Z,99606.09
2022-08-28T05:46:22.409Z,99602.41
2022-08-28T05:48:49.694Z,99603.09
2022-08-28T05:51:20.280Z,99603.69
2022-08-28T05:53:50.058Z,99593.72
2022-08-28T05:56:26.918Z,99595.00
2022-08-28T05:58:53.701Z,99589.97
2022-08-28T06:01:29.098Z,99591.31
2022-08-28T06:04:01.662Z,99598.13
2022-08-28T06:06:31.541Z,99591.16
2022-08-28T06:09:00.470Z,99593.72
2022-08-28T06:11:30.927Z,99596.38
2022-08-28T06:14:02.460Z,99588.19
2022-08-28T06:16:32.726Z,99586.50
2022-08-28T06:19:00.681Z,99585.47
2022-08-28T06:21:28.600Z,99598.44
2022-08-28T06:23:55.410Z,99582.38
2022-08-28T06:26:23.096Z,99584.09
2022-08-28T06:28:49.961Z,99576.94
2022-08-28T06:31:24.249Z,99582.03
2022-08-28T06:33:54.313Z,99588.09
2022-08-28T06:36:21.880Z,99581.00
2022-08-28T06:38:49.064Z,99580.00
2022-08-28T06:41:16.203Z,99572.06
2022-08-28T06:43:43.364Z,99580.66
2022-08-28T06:46:10.246Z,99578.03
2022-08-28T06:48:37.253Z,99577.75
2022-08-28T06:51:07.474Z,99574.69
2022-08-28T06:53:34.520Z,99573.63
2022-08-28T06:56:08.732Z,99575.66
2022-08-28T06:58:38.833Z,99566.06
2022-08-28T07:01:11.241Z,99558.28
2022-08-28T07:03:42.704Z,99547.22
2022-08-28T07:06:14.103Z,99545.63
2022-08-28T07:08:42.524Z,99550.34
2022-08-28T07:11:25.954Z,99533.50
2022-08-28T07:13:53.905Z,99531.22
2022-08-28T07:16:23.059Z,99530.47
2022-08-28T07:18:50.048Z,99534.19
2022-08-28T07:21:16.927Z,99525.91
2022-08-28T07:23:45.219Z,99529.97
2022-08-28T07:26:20.948Z,99519.81
2022-08-28T07:28:47.714Z,99521.88
2022-08-28T07:31:18.060Z,99518.00
2022-08-28T07:33:45.404Z,99507.34
2022-08-28T07:36:25.578Z,99501.97
2022-08-28T07:38:56.883Z,99481.09
2022-08-28T07:41:27.063Z,99474.00
2022-08-28T07:44:12.358Z,99480.16
2022-08-28T07:46:40.667Z,99480.25
2022-08-28T07:49:09.031Z,99471.34
2022-08-28T07:51:37.038Z,99459.75
2022-08-28T07:54:04.741Z,99440.81
2022-08-28T07:56:32.243Z,99448.41
2022-08-28T07:59:01.224Z,99434.97
2022-08-28T08:01:30.926Z,99428.31
2022-08-28T08:04:01.486Z,99421.34
2022-08-28T08:06:34.279Z,99406.25
2022-08-28T08:09:02.266Z,99402.81
2022-08-28T08:11:32.629Z,99384.66
2022-08-28T08:14:05.602Z,99375.50
2022-08-28T08:16:39.315Z,99374.78
2022-08-28T08:19:10.161Z,99376.59
2022-08-28T08:21:38.091Z,99380.34
2022-08-28T08:24:05.574Z,99366.59
2022-08-28T08:26:33.248Z,99356.78
2022-08-28T08:29:00.896Z,99358.59
2022-08-28T08:31:33.900Z,99341.78
2022-08-28T08:34:05.102Z,99341.66
2022-08-28T08:36:34.682Z,99365.00
2022-08-28T08:39:02.070Z,99368.97
2022-08-28T08:41:57.718Z,99383.53
2022-08-28T08:44:55.802Z,99383.50
2022-08-28T08:47:27.031Z,99372.25
2022-08-28T08:50:02.843Z,99394.41
2022-08-28T08:52:33.457Z,99389.56
2022-08-28T08:55:10.035Z,99379.88
2022-08-28T08:57:39.114Z,99366.31
2022-08-28T09:00:15.817Z,99370.41
2022-08-28T09:03:19.545Z,99342.47
2022-08-28T09:05:53.377Z,99331.16
2022-08-28T09:08:40.106Z,99316.56
2022-08-28T09:11:34.374Z,99291.41
2022-08-28T09:14:06.956Z,99280.81
2022-08-28T09:16:38.413Z,99293.25
2022-08-28T09:19:06.338Z,99306.84
2022-08-28T09:21:35.453Z,99288.34
2022-08-28T09:24:10.898Z,99268.06
2022-08-28T09:26:39.583Z,99251.03
2022-08-28T09:29:15.986Z,99240.06
2022-08-28T09:31:44.110Z,99214.53
2022-08-28T09:34:28.549Z,99225.03
2022-08-28T09:36:57.491Z,99226.44
2022-08-28T09:39:35.912Z,99209.38
2022-08-28T09:42:40.906Z,99195.94
2022-08-28T09:45:18.410Z,99163.91
2022-08-28T09:47:49.716Z,99118.41
2022-08-28T09:50:19.177Z,99151.72
2022-08-28T09:52:46.622Z,99095.22
2022-08-28T09:55:22.108Z,99025.31
2022-08-28T09:57:49.060Z,98994.50
2022-08-28T10:00:16.642Z,98931.31
2022-08-28T10:03:03.302Z,98875.63
2022-08-28T10:05:41.742Z,98824.03
2022-08-28T10:08:25.837Z,98787.41
2022-08-28T10:10:58.756Z,98770.50
2022-08-28T10:13:38.570Z,98708.72
2022-08-28T10:16:28.920Z,98701.47
2022-08-28T10:19:18.680Z,98680.44
2022-08-28T10:21:48.266Z,98661.47
2022-08-28T10:24:30.501Z,98623.16
2022-08-28T10:27:12.733Z,98523.06
2022-08-28T10:30:12.524Z,98424.19
2022-08-28T10:33:02.252Z,98375.63
2022-08-28T10:35:41.306Z,98381.53
2022-08-28T10:38:41.925Z,98361.56
2022-08-28T10:41:25.914Z,98346.16
2022-08-28T10:43:54.720Z,98391.47
2022-08-28T10:46:27.690Z,98400.31
2022-08-28T10:49:03.196Z,98409.47
2022-08-28T10:51:37.650Z,98425.63
2022-08-28T10:54:18.891Z,98420.94
2022-08-28T10:56:56.818Z,98484.19
2022-08-28T10:59:25.769Z,98507.59
2022-08-28T11:01:52.777Z,98504.19
2022-08-28T11:04:25.688Z,98477.47
2022-08-28T11:07:10.239Z,98465.00
2022-08-28T11:09:46.054Z,98431.06
2022-08-28T11:12:19.884Z,98377.41
2022-08-28T11:14:51.045Z,98337.25
2022-08-28T11:17:27.770Z,98303.66
2022-08-28T11:20:09.797Z,98284.69
2022-08-28T11:22:49.347Z,98286.47
2022-08-28T11:25:32.470Z,98321.88
2022-08-28T11:28:32.508Z,98321.84
2022-08-28T11:31:05.151Z,98338.19
2022-08-28T11:33:50.556Z,98370.13
2022-08-28T11:36:20.059Z,98382.97
2022-08-28T11:39:19.431Z,98366.03
2022-08-28T11:42:10.787Z,98374.97
2022-08-28T11:44:45.860Z,98383.34
2022-08-28T11:47:36.959Z,98419.38
2022-08-28T11:50:20.096Z,98430.09
2022-08-28T11:52:49.557Z,98433.66
2022-08-28T11:55:31.021Z,98443.19
2022-08-28T12:00:33.611Z,98457.06
2022-08-28T12:03:24.233Z,98463.28
2022-08-28T12:05:55.562Z,98470.78
2022-08-28T12:08:53.231Z,98472.13
2022-08-28T12:11:44.953Z,98460.88
2022-08-28T12:14:46.891Z,98466.88
2022-08-28T12:17:17.900Z,98455.75
2022-08-28T12:19:55.273Z,98451.03
2022-08-28T12:22:44.620Z,98457.19
2022-08-28T12:25:24.877Z,98457.75
2022-08-28T12:27:53.216Z,98463.19
2022-08-28T12:30:32.407Z,98471.22
2022-08-28T12:33:32.021Z,98475.97
2022-08-28T12:36:04.601Z,98481.84
2022-08-28T12:38:33.562Z,98486.34
2022-08-28T12:41:02.586Z,98477.31
2022-08-28T12:43:45.669Z,98494.69
2022-08-28T12:46:36.397Z,98488.69
2022-08-28T12:49:25.302Z,98474.97
2022-08-28T12:52:07.834Z,98449.50
2022-08-28T12:54:35.359Z,98439.00
2022-08-28T12:57:08.383Z,98435.13
2022-08-28T12:59:50.226Z,98432.44
2022-08-28T13:02:36.377Z,98421.84
2022-08-28T13:05:12.087Z,98409.13
2022-08-28T13:07:51.420Z,98389.09
2022-08-28T13:10:24.553Z,98376.13
2022-08-28T13:13:05.443Z,98372.25
2022-08-28T13:15:51.632Z,98383.06
2022-08-28T13:18:35.440Z,98379.94
2022-08-28T13:21:17.461Z,98381.09
2022-08-28T13:24:00.144Z,98375.66
2022-08-28T13:26:33.201Z,98360.66
2022-08-28T13:29:02.906Z,98361.22
2022-08-28T13:31:35.903Z,98361.56
2022-08-28T13:34:07.096Z,98361.50
2022-08-28T13:36:44.680Z,98385.84
2022-08-28T13:39:13.622Z,98385.66
2022-08-28T13:41:41.699Z,98373.00
2022-08-28T13:44:09.190Z,98333.66
2022-08-28T13:46:36.156Z,98304.66
2022-08-28T13:49:02.958Z,98286.97
2022-08-28T13:51:29.833Z,98291.78
2022-08-28T13:53:58.086Z,98297.22
2022-08-28T13:56:27.644Z,98298.03
2022-08-28T13:58:57.847Z,98302.50
2022-08-28T14:01:48.680Z,98317.81
2022-08-28T14:04:15.866Z,98335.44
2022-08-28T14:06:44.131Z,98343.47
2022-08-28T14:09:17.545Z,98369.47
2022-08-28T14:11:49.741Z,98399.06
2022-08-28T14:14:17.142Z,98421.16
2022-08-28T14:16:45.659Z,98445.84
2022-08-28T14:19:12.883Z,98452.88
2022-08-28T14:21:41.570Z,98474.63
2022-08-28T14:24:09.224Z,98487.69
2022-08-28T14:26:36.392Z,98501.06
2022-08-28T14:29:06.638Z,98512.28
2022-08-28T14:31:36.047Z,98531.63
2022-08-28T14:34:05.563Z,98552.84
2022-08-28T14:36:33.318Z,98567.81
2022-08-28T14:39:06.198Z,98600.56
2022-08-28T14:41:34.556Z,98610.84
2022-08-28T14:44:02.104Z,98626.09
2022-08-28T14:46:34.195Z,98653.47
2022-08-28T14:49:03.916Z,98658.38
2022-08-28T14:51:33.394Z,98672.69
2022-08-28T14:54:01.713Z,98692.31
2022-08-28T14:56:31.556Z,98708.28
2022-08-28T14:59:00.301Z,98727.00
2022-08-28T15:01:40.469Z,98736.34
2022-08-28T15:04:11.259Z,98754.38
2022-08-28T15:06:38.462Z,98762.63
2022-08-28T15:09:05.549Z,98777.84
2022-08-28T15:11:32.432Z,98792.75
2022-08-28T15:13:59.217Z,98797.00
2022-08-28T15:16:31.144Z,98818.50
2022-08-28T15:18:59.401Z,98827.66
2022-08-28T15:21:35.439Z,98834.13
2022-08-28T15:24:04.031Z,98843.53
2022-08-28T15:26:32.103Z,98847.63
2022-08-28T15:29:02.301Z,98851.59
2022-08-28T15:31:31.236Z,98848.19
2022-08-28T15:33:58.480Z,98854.81
2022-08-28T15:36:25.313Z,98849.06
2022-08-28T15:39:10.882Z,98850.59
2022-08-28T15:41:38.558Z,98868.16
2022-08-28T15:44:05.883Z,98875.16
2022-08-28T15:46:34.511Z,98872.91
2022-08-28T15:49:04.141Z,98869.00
2022-08-28T15:51:35.884Z,98865.03
2022-08-28T15:54:03.010Z,98851.31
2022-08-28T15:56:29.837Z,98857.19
2022-08-28T15:58:56.822Z,98857.44
2022-08-28T16:01:23.918Z,98859.41
2022-08-28T16:03:50.825Z,98850.16
2022-08-28T16:06:20.835Z,98860.25
2022-08-28T16:08:49.148Z,98862.78
2022-08-28T16:11:20.829Z,98863.88
2022-08-28T16:13:47.937Z,98872.84
2022-08-28T16:16:14.808Z,98876.75
2022-08-28T16:18:41.939Z,98881.75
2022-08-28T16:21:09.223Z,98892.09
2022-08-28T16:23:37.217Z,98890.69
2022-08-28T16:26:05.863Z,98905.38
2022-08-28T16:28:33.363Z,98903.25
2022-08-28T16:31:11.684Z,98911.25
2022-08-28T16:33:47.750Z,98906.84
2022-08-28T16:36:15.759Z,98912.69
2022-08-28T16:38:46.160Z,98914.91
2022-08-28T16:41:19.642Z,98926.53
2022-08-28T16:43:47.242Z,98921.84
2022-08-28T16:46:20.092Z,98938.09
2022-08-28T16:48:48.042Z,98944.75
2022-08-28T16:51:16.260Z,98948.38
2022-08-28T16:53:43.474Z,98948.91
2022-08-28T16:56:12.229Z,98967.91
2022-08-28T16:58:39.944Z,98967.31
2022-08-28T17:01:08.353Z,98972.88
2022-08-28T17:03:38.708Z,98978.72
2022-08-28T17:06:18.504Z,98989.13
2022-08-28T17:08:45.384Z,98998.59
2022-08-28T17:11:12.970Z,99002.19
2022-08-28T17:13:40.354Z,99004.84
2022-08-28T17:16:08.178Z,99004.16
2022-08-28T17:18:35.376Z,99010.53
2022-08-28T17:21:20.849Z,99008.00
2022-08-28T17:23:47.903Z,99010.22
2022-08-28T17:26:15.417Z,99019.16
2022-08-28T17:28:42.988Z,99028.09
2022-08-28T17:31:11.291Z,99038.72
2022-08-28T17:33:40.567Z,99035.34
2022-08-28T17:36:08.857Z,99036.56
2022-08-28T17:38:48.627Z,99041.19
2022-08-28T17:41:15.453Z,99045.06
2022-08-28T17:43:42.311Z,99049.91
2022-08-28T17:46:09.189Z,99058.84
2022-08-28T17:48:37.012Z,99060.03
2022-08-28T17:51:04.830Z,99059.44
2022-08-28T17:53:31.705Z,99064.13
2022-08-28T17:55:59.114Z,99067.75
2022-08-28T17:58:25.902Z,99073.34
2022-08-28T18:00:52.998Z,99076.94
2022-08-28T18:03:19.861Z,99087.81
2022-08-28T18:05:46.668Z,99085.41
2022-08-28T18:08:13.702Z,99089.25
2022-08-28T18:10:40.779Z,99097.34
2022-08-28T18:13:07.641Z,99105.56
2022-08-28T18:15:34.786Z,99108.34
2022-08-28T18:18:04.814Z,99117.28
2022-08-28T18:20:31.675Z,99127.28
2022-08-28T18:22:58.555Z,99133.69
2022-08-28T18:25:50.730Z,99128.84
2022-08-28T18:28:22.471Z,99143.09
2022-08-28T18:30:51.002Z,99143.56
2022-08-28T18:33:22.263Z,99158.06
2022-08-28T18:35:50.508Z,99166.38
2022-08-28T18:38:18.532Z,99176.41
2022-08-28T18:40:45.586Z,99178.28
2022-08-28T18:43:13.882Z,99190.00
2022-08-28T18:45:40.850Z,99189.34
2022-08-28T18:48:12.602Z,99192.97
2022-08-28T18:50:43.221Z,99202.97
2022-08-28T18:53:12.824Z,99205.75
2022-08-28T18:55:39.711Z,99201.50
2022-08-28T18:58:06.988Z,99203.44
2022-08-28T19:00:34.405Z,99219.56
2022-08-28T19:03:01.394Z,99218.84
2022-08-28T19:05:28.375Z,99222.59
2022-08-28T19:07:55.179Z,99228.13
2022-08-28T19:10:33.447Z,99235.34
2022-08-28T19:13:01.964Z,99250.66
2022-08-28T19:15:29.703Z,99258.94
2022-08-28T19:17:56.814Z,99254.72
2022-08-28T19:20:23.931Z,99269.03
2022-08-28T19:22:50.785Z,99266.38
2022-08-28T19:25:27.883Z,99275.31
2022-08-28T19:27:56.414Z,99270.44
2022-08-28T19:30:28.066Z,99285.09
2022-08-28T19:32:55.299Z,99295.72
2022-08-28T19:35:24.574Z,99301.25
2022-08-28T19:37:52.667Z,99310.50
2022-08-28T19:40:20.678Z,99315.19
2022-08-28T19:42:49.898Z,99316.31
2022-08-28T19:45:17.269Z,99314.81
2022-08-28T19:47:44.204Z,99321.31
2022-08-28T19:50:12.886Z,99328.38
2022-08-28T19:52:40.212Z,99334.78
2022-08-28T19:55:08.003Z,99333.28
2022-08-28T19:57:35.523Z,99343.13
2022-08-28T20:00:04.178Z,99357.47
2022-08-28T20:02:31.172Z,99356.81
2022-08-28T20:04:58.043Z,99358.94
2022-08-28T20:07:25.147Z,99360.09
2022-08-28T20:09:52.434Z,99367.31
2022-08-28T20:12:19.981Z,99371.88
2022-08-28T20:14:47.065Z,99378.31
2022-08-28T20:17:14.138Z,99397.09
2022-08-28T20:19:41.584Z,99398.34
2022-08-28T20:22:08.711Z,99404.72
2022-08-28T20:24:35.547Z,99407.56
2022-08-28T20:27:02.592Z,99415.72
2022-08-28T20:29:29.691Z,99419.31
2022-08-28T20:31:56.502Z,99418.66
2022-08-28T20:34:24.570Z,99430.34
2022-08-28T20:36:51.558Z,99420.78
2022-08-28T20:39:20.073Z,99432.44
2022-08-28T20:41:49.301Z,99456.06
2022-08-28T20:44:18.550Z,99469.31
2022-08-28T20:46:51.176Z,99476.31
2022-08-28T20:49:22.197Z,99477.66
2022-08-28T20:51:52.796Z,99491.84
2022-08-28T20:54:21.539Z,99502.44
2022-08-28T20:56:49.365Z,99507.31
2022-08-28T20:59:16.845Z,99505.91
2022-08-28T21:01:43.741Z,99513.19
2022-08-28T21:04:10.849Z,99524.53
2022-08-28T21:06:38.366Z,99530.19
2022-08-28T21:09:05.230Z,99534.06
2022-08-28T21:11:32.067Z,99540.50
2022-08-28T21:13:58.934Z,99547.88
2022-08-28T21:16:26.161Z,99561.50
2022-08-28T21:19:14.560Z,99573.28
2022-08-28T21:21:40.859Z,99585.09
2022-08-28T21:24:10.754Z,99597.00
2022-08-28T21:26:40.578Z,99613.78
2022-08-28T21:29:09.957Z,99618.81
2022-08-28T21:31:41.326Z,99635.59
2022-08-28T21:34:09.512Z,99659.13
2022-08-28T21:36:38.453Z,99669.53
2022-08-28T21:39:06.168Z,99678.75
2022-08-28T21:41:33.260Z,99690.22
2022-08-28T21:44:00.341Z,99694.28
2022-08-28T21:46:27.819Z,99691.50
2022-08-28T21:48:56.288Z,99680.22
2022-08-28T21:51:24.488Z,99687.47
2022-08-28T21:53:51.542Z,99680.66
2022-08-28T21:56:22.857Z,99685.16
2022-08-28T21:58:51.108Z,99682.84
2022-08-28T22:01:20.632Z,99680.34
2022-08-28T22:03:47.541Z,99664.84
2022-08-28T22:06:18.495Z,99670.38
2022-08-28T22:08:47.169Z,99655.69
2022-08-28T22:11:15.729Z,99653.06
2022-08-28T22:13:48.537Z,99642.66
2022-08-28T22:16:15.981Z,99629.56
2022-08-28T22:18:42.917Z,99614.72
2022-08-28T22:21:34.518Z,99608.50
2022-08-28T22:24:01.443Z,99588.97
2022-08-28T22:26:28.474Z,99569.25
2022-08-28T22:28:56.134Z,99555.84
2022-08-28T22:31:23.984Z,99532.56
2022-08-28T22:33:52.257Z,99501.34
2022-08-28T22:36:20.750Z,99470.00
2022-08-28T22:38:53.202Z,99435.25
2022-08-28T22:41:20.830Z,99397.13
2022-08-28T22:43:49.858Z,99365.91
2022-08-28T22:46:17.025Z,99329.22
2022-08-28T22:48:43.904Z,99279.31
2022-08-28T22:51:14.063Z,99263.66
2022-08-28T22:53:43.338Z,99238.41
2022-08-28T22:56:11.509Z,99219.41
2022-08-28T22:58:39.617Z,99199.44
2022-08-28T23:01:11.863Z,99189.75
2022-08-28T23:03:39.653Z,99186.50
2022-08-28T23:06:07.030Z,99179.53
2022-08-28T23:08:34.324Z,99171.06
2022-08-28T23:11:01.622Z,99170.44
2022-08-28T23:13:30.036Z,99169.84
2022-08-28T23:15:56.922Z,99158.72
2022-08-28T23:18:24.797Z,99158.03
2022-08-28T23:20:52.569Z,99154.78
2022-08-28T23:23:19.618Z,99152.41
2022-08-28T23:25:46.786Z,99146.34
2022-08-28T23:28:13.629Z,99141.88
2022-08-28T23:30:41.407Z,99132.72
2022-08-28T23:33:19.749Z,99143.81
2022-08-28T23:35:50.438Z,99132.97
2022-08-28T23:38:17.274Z,99130.94
2022-08-28T23:40:44.555Z,99129.91
2022-08-28T23:43:11.995Z,99125.47
2022-08-28T23:45:40.544Z,99134.16
2022-08-28T23:48:08.275Z,99131.59
2022-08-28T23:50:35.617Z,99128.22
2022-08-28T23:53:04.034Z,99128.28
2022-08-28T23:55:31.538Z,99128.28
2022-08-28T23:58:00.592Z,99125.75
